createdAt,value
2022-12-19T00:01:55.500Z,-2.00
2022-12-19T00:04:22.438Z,-2.00
2022-12-19T00:06:51.752Z,-1.90
2022-12-19T00:09:18.648Z,-1.90
2022-12-19T00:11:50.105Z,-1.90
2022-12-19T00:14:17.383Z,-1.80
2022-12-19T00:16:44.468Z,-1.80
2022-12-19T00:19:12.046Z,-1.70
2022-12-19T00:21:39.357Z,-1.80
2022-12-19T00:24:18.081Z,-2.00
2022-12-19T00:26:51.248Z,-2.00
2022-12-19T00:29:18.159Z,-1.90
2022-12-19T00:31:47.616Z,-1.90
2022-12-19T00:34:14.864Z,-1.80
2022-12-19T00:36:41.876Z,-1.70
2022-12-19T00:39:10.300Z,-1.70
2022-12-19T00:41:41.451Z,-1.60
2022-12-19T00:44:16.780Z,-1.50
2022-12-19T00:46:44.503Z,-1.50
2022-12-19T00:49:21.280Z,-1.60
2022-12-19T00:51:48.192Z,-1.70
2022-12-19T00:54:15.151Z,-1.50
2022-12-19T00:56:42.686Z,-1.50
2022-12-19T00:59:11.680Z,-1.50
2022-12-19T01:01:41.343Z,-1.50
2022-12-19T01:07:01.870Z,-1.40
2022-12-19T01:09:32.463Z,-1.40
2022-12-19T01:12:18.255Z,-1.40
2022-12-19T01:14:45.210Z,-1.40
2022-12-19T01:17:12.330Z,-1.40
2022-12-19T01:19:43.985Z,-1.40
2022-12-19T01:22:12.411Z,-1.40
2022-12-19T01:24:40.042Z,-1.30
2022-12-19T01:27:07.582Z,-1.20
2022-12-19T01:29:47.695Z,-1.20
2022-12-19T01:32:26.641Z,-1.10
2022-12-19T01:35:00.924Z,-1.20
2022-12-19T01:37:30.329Z,-1.10
2022-12-19T01:39:58.337Z,-1.10
2022-12-19T01:42:34.087Z,-1.10
2022-12-19T01:45:04.087Z,-1.20
2022-12-19T01:47:36.018Z,-1.10
2022-12-19T01:50:03.619Z,-1.10
2022-12-19T01:52:30.514Z,-1.00
2022-12-19T01:54:59.718Z,-0.90
2022-12-19T01:57:29.194Z,-0.90
2022-12-19T01:59:57.470Z,-0.80
2022-12-19T02:02:36.005Z,-0.80
2022-12-19T02:05:05.885Z,-0.80
2022-12-19T02:07:33.483Z,-0.80
2022-12-19T02:10:02.648Z,-1.10
2022-12-19T02:12:37.064Z,-1.00
2022-12-19T02:15:05.501Z,-0.80
2022-12-19T02:17:51.313Z,-0.80
2022-12-19T02:20:22.158Z,-0.70
2022-12-19T02:22:49.032Z,-0.70
2022-12-19T02:25:38.584Z,-0.70
2022-12-19T02:28:21.137Z,-0.70
2022-12-19T02:30:51.030Z,-0.80
2022-12-19T02:33:30.324Z,-0.80
2022-12-19T02:36:01.927Z,-0.80
2022-12-19T02:38:32.311Z,-0.80
2022-12-19T02:40:59.189Z,-0.70
2022-12-19T02:43:32.067Z,-0.70
2022-12-19T02:46:04.263Z,-0.70
2022-12-19T02:48:36.087Z,-0.60
2022-12-19T02:51:04.564Z,-0.50
2022-12-19T02:53:34.482Z,-0.40
2022-12-19T02:56:05.041Z,-0.40
2022-12-19T02:58:37.408Z,-0.40
2022-12-19T03:01:13.066Z,-0.30
2022-12-19T03:03:49.167Z,-0.30
2022-12-19T03:06:29.244Z,-0.50
2022-12-19T03:09:08.415Z,-0.60
2022-12-19T03:11:38.516Z,-0.80
2022-12-19T03:14:11.407Z,-0.90
2022-12-19T03:16:41.888Z,-0.80
2022-12-19T03:19:12.772Z,-0.90
2022-12-19T03:21:41.330Z,-0.70
2022-12-19T03:24:13.293Z,-0.50
2022-12-19T03:26:52.390Z,-0.40
2022-12-19T03:29:22.793Z,-0.40
2022-12-19T03:31:49.976Z,-0.30
2022-12-19T03:34:24.348Z,-0.30
2022-12-19T03:36:55.191Z,-0.20
2022-12-19T03:39:23.695Z,-0.20
2022-12-19T03:42:09.912Z,-0.20
2022-12-19T03:44:38.072Z,-0.30
2022-12-19T03:47:08.430Z,-0.20
2022-12-19T03:49:37.481Z,-0.20
2022-12-19T03:52:26.005Z,-0.20
2022-12-19T03:55:01.112Z,-0.20
2022-12-19T03:57:35.991Z,-0.10
2022-12-19T04:00:06.438Z,0.00
2022-12-19T04:02:41.489Z,0.00
2022-12-19T04:05:09.276Z,0.00
2022-12-19T04:07:37.366Z,0.00
2022-12-19T04:10:06.132Z,0.00
2022-12-19T04:12:35.987Z,-0.10
2022-12-19T04:15:04.366Z,-0.10
2022-12-19T04:17:31.310Z,-0.10
2022-12-19T04:19:58.136Z,0.10
2022-12-19T04:22:48.339Z,0.10
2022-12-19T04:25:16.733Z,0.20
2022-12-19T04:27:49.595Z,0.30
2022-12-19T04:30:19.959Z,0.30
2022-12-19T04:32:50.010Z,0.30
2022-12-19T04:35:16.910Z,0.40
2022-12-19T04:37:43.877Z,0.30
2022-12-19T04:40:13.241Z,0.40
2022-12-19T04:42:40.159Z,0.40
2022-12-19T04:45:09.621Z,0.40
2022-12-19T04:47:36.821Z,0.40
2022-12-19T04:50:04.030Z,0.40
2022-12-19T04:52:30.925Z,0.40
2022-12-19T04:54:57.890Z,0.40
2022-12-19T04:57:24.690Z,0.50
2022-12-19T04:59:51.512Z,0.50
2022-12-19T05:02:20.870Z,0.70
2022-12-19T05:04:47.803Z,0.70
2022-12-19T05:07:14.686Z,0.70
2022-12-19T05:09:41.761Z,0.70
2022-12-19T05:12:10.207Z,0.70
2022-12-19T05:14:37.071Z,0.80
2022-12-19T05:17:04.146Z,0.80
2022-12-19T05:19:33.330Z,0.80
2022-12-19T05:22:02.523Z,0.80
2022-12-19T05:24:29.894Z,0.90
2022-12-19T05:26:59.491Z,1.00
2022-12-19T05:29:26.470Z,1.00
2022-12-19T05:31:53.341Z,1.10
2022-12-19T05:34:20.188Z,1.10
2022-12-19T05:36:49.130Z,1.10
2022-12-19T05:39:16.046Z,1.10
2022-12-19T05:41:46.315Z,1.10
2022-12-19T05:44:18.643Z,1.10
2022-12-19T05:46:50.587Z,0.90
2022-12-19T05:49:19.797Z,0.90
2022-12-19T05:51:47.308Z,1.00
2022-12-19T05:54:14.152Z,1.10
2022-12-19T05:56:40.960Z,1.10
2022-12-19T05:59:07.792Z,1.20
2022-12-19T06:01:34.821Z,1.20
2022-12-19T06:04:01.751Z,1.10
2022-12-19T06:06:28.599Z,1.20
2022-12-19T06:08:59.074Z,1.20
2022-12-19T06:11:28.500Z,1.30
2022-12-19T06:13:55.786Z,1.30
2022-12-19T06:16:23.554Z,1.30
2022-12-19T06:18:53.324Z,1.30
2022-12-19T06:21:21.559Z,1.40
2022-12-19T06:23:48.396Z,1.30
2022-12-19T06:26:19.503Z,1.20
2022-12-19T06:28:47.493Z,1.30
2022-12-19T06:31:17.806Z,1.20
2022-12-19T06:33:44.951Z,1.20
2022-12-19T06:36:14.011Z,1.20
2022-12-19T06:38:43.294Z,1.30
2022-12-19T06:41:29.250Z,1.30
2022-12-19T06:43:59.933Z,1.40
2022-12-19T06:46:26.832Z,1.20
2022-12-19T06:48:53.676Z,1.20
2022-12-19T06:51:25.591Z,1.10
2022-12-19T06:53:55.568Z,0.90
2022-12-19T06:56:22.490Z,1.00
2022-12-19T06:58:49.892Z,1.00
2022-12-19T07:01:20.997Z,1.00
2022-12-19T07:03:50.983Z,1.10
2022-12-19T07:06:17.827Z,1.20
2022-12-19T07:08:44.659Z,1.40
2022-12-19T07:11:11.521Z,1.40
2022-12-19T07:13:41.031Z,1.30
2022-12-19T07:16:10.300Z,1.30
2022-12-19T07:18:38.274Z,1.30
2022-12-19T07:21:05.851Z,1.40
2022-12-19T07:23:33.773Z,1.40
2022-12-19T07:26:01.130Z,1.40
2022-12-19T07:28:28.002Z,1.50
2022-12-19T07:30:57.120Z,1.50
2022-12-19T07:33:23.996Z,1.50
2022-12-19T07:35:50.936Z,1.50
2022-12-19T07:38:18.289Z,1.50
2022-12-19T07:41:17.572Z,1.50
2022-12-19T07:43:45.664Z,1.70
2022-12-19T07:46:15.738Z,1.70
2022-12-19T07:48:42.735Z,1.70
2022-12-19T07:51:09.844Z,1.70
2022-12-19T07:53:36.818Z,1.70
2022-12-19T07:56:04.710Z,1.70
2022-12-19T07:58:36.988Z,1.80
2022-12-19T08:01:04.063Z,1.90
2022-12-19T08:03:30.964Z,1.90
2022-12-19T08:06:02.603Z,2.10
2022-12-19T08:08:35.341Z,2.20
2022-12-19T08:11:09.266Z,2.30
2022-12-19T08:13:40.816Z,2.30
2022-12-19T08:16:16.930Z,2.40
2022-12-19T08:18:43.873Z,2.40
2022-12-19T08:21:11.356Z,2.30
2022-12-19T08:23:41.123Z,2.20
2022-12-19T08:26:13.971Z,2.30
2022-12-19T08:28:41.154Z,2.40
2022-12-19T08:31:12.892Z,2.30
2022-12-19T08:33:42.917Z,2.40
2022-12-19T08:36:15.826Z,2.50
2022-12-19T08:38:42.739Z,2.50
2022-12-19T08:41:09.785Z,2.70
2022-12-19T08:43:36.737Z,2.90
2022-12-19T08:46:06.537Z,2.90
2022-12-19T08:48:34.468Z,2.80
2022-12-19T08:51:06.449Z,2.70
2022-12-19T08:53:38.857Z,2.70
2022-12-19T08:56:18.009Z,2.90
2022-12-19T08:58:45.572Z,3.10
2022-12-19T09:01:19.352Z,3.20
2022-12-19T09:04:36.498Z,3.30
2022-12-19T09:06:36.815Z,3.50
2022-12-19T09:09:07.438Z,3.70
2022-12-19T09:11:47.591Z,3.80
2022-12-19T09:14:15.617Z,3.70
2022-12-19T09:16:50.275Z,3.80
2022-12-19T09:19:17.296Z,3.90
2022-12-19T09:21:44.692Z,3.90
2022-12-19T09:24:14.671Z,3.90
2022-12-19T09:26:42.284Z,4.00
2022-12-19T09:29:20.070Z,4.00
2022-12-19T09:31:53.836Z,4.00
2022-12-19T09:34:30.867Z,4.00
2022-12-19T09:37:04.666Z,4.10
2022-12-19T09:39:35.187Z,4.30
2022-12-19T09:42:26.848Z,4.40
2022-12-19T09:45:32.873Z,4.60
2022-12-19T09:48:01.962Z,4.70
2022-12-19T09:50:50.843Z,4.80
2022-12-19T09:53:26.061Z,5.00
2022-12-19T09:55:54.101Z,5.20
2022-12-19T09:58:37.672Z,5.40
2022-12-19T10:01:25.998Z,5.50
2022-12-19T10:04:18.477Z,5.40
2022-12-19T10:07:11.736Z,5.40
2022-12-19T10:10:40.828Z,4.90
2022-12-19T10:12:51.482Z,4.50
2022-12-19T10:15:42.297Z,4.60
2022-12-19T10:18:18.777Z,4.50
2022-12-19T10:20:57.565Z,4.50
2022-12-19T10:23:45.679Z,4.40
2022-12-19T10:26:20.952Z,4.20
2022-12-19T10:28:48.953Z,4.10
2022-12-19T10:31:21.536Z,4.00
2022-12-19T10:33:55.586Z,4.10
2022-12-19T10:36:42.306Z,3.90
2022-12-19T10:39:33.680Z,3.90
2022-12-19T10:42:15.892Z,3.90
2022-12-19T10:44:45.527Z,4.00
2022-12-19T10:47:17.501Z,4.30
2022-12-19T10:49:44.813Z,4.50
2022-12-19T10:52:16.156Z,4.90
2022-12-19T10:54:43.987Z,5.30
2022-12-19T10:57:27.118Z,5.50
2022-12-19T11:00:02.862Z,5.20
2022-12-19T11:02:39.101Z,5.40
2022-12-19T11:05:22.583Z,5.30
2022-12-19T11:08:08.044Z,5.40
2022-12-19T11:12:20.512Z,5.70
2022-12-19T11:19:08.941Z,5.90
2022-12-19T11:19:30.455Z,6.10
2022-12-19T11:29:29.764Z,5.90
2022-12-19T11:29:30.353Z,5.90
2022-12-19T11:30:38.645Z,5.60
2022-12-19T11:30:46.606Z,5.70
2022-12-19T11:34:21.278Z,6.20
2022-12-19T11:37:43.872Z,6.10
2022-12-19T11:40:36.610Z,5.90
2022-12-19T11:43:45.513Z,6.00
2022-12-19T11:46:40.556Z,6.00
2022-12-19T11:49:38.715Z,6.10
2022-12-19T11:55:23.736Z,5.90
2022-12-19T11:57:51.519Z,6.00
2022-12-19T12:00:21.583Z,5.70
2022-12-19T12:03:20.438Z,5.70
2022-12-19T12:05:55.403Z,5.90
2022-12-19T12:11:24.058Z,5.80
2022-12-19T12:19:48.619Z,5.80
2022-12-19T12:27:56.604Z,5.70
2022-12-19T12:31:11.128Z,5.70
2022-12-19T12:31:16.334Z,5.70
2022-12-19T12:31:47.567Z,5.70
2022-12-19T12:31:47.723Z,5.60
2022-12-19T12:31:57.031Z,5.80
2022-12-19T12:35:42.530Z,5.80
2022-12-19T12:40:10.492Z,6.00
2022-12-19T12:43:08.451Z,5.90
2022-12-19T12:45:47.694Z,5.90
2022-12-19T12:48:45.661Z,5.90
2022-12-19T12:51:13.812Z,5.90
2022-12-19T12:53:47.515Z,5.80
2022-12-19T12:56:18.226Z,5.80
2022-12-19T12:58:48.488Z,5.90
2022-12-19T13:01:26.108Z,6.00
2022-12-19T13:03:58.397Z,5.90
2022-12-19T13:07:00.405Z,6.00
2022-12-19T13:09:30.223Z,6.10
2022-12-19T13:12:43.836Z,5.90
2022-12-19T13:15:28.765Z,5.70
2022-12-19T13:17:55.693Z,5.60
2022-12-19T13:20:27.575Z,5.70
2022-12-19T13:23:00.252Z,5.40
2022-12-19T13:25:27.339Z,5.20
2022-12-19T13:28:03.534Z,5.10
2022-12-19T13:30:50.117Z,4.90
2022-12-19T13:33:21.728Z,4.80
2022-12-19T13:35:48.813Z,4.90
2022-12-19T13:39:50.929Z,4.90
2022-12-19T13:42:01.122Z,5.00
2022-12-19T13:44:29.254Z,5.00
2022-12-19T13:46:59.054Z,5.10
2022-12-19T13:49:31.893Z,5.10
2022-12-19T13:52:02.924Z,5.10
2022-12-19T13:54:46.865Z,5.10
2022-12-19T13:57:32.630Z,5.00
2022-12-19T14:00:04.071Z,4.80
2022-12-19T14:02:47.692Z,4.60
2022-12-19T14:06:05.800Z,4.60
2022-12-19T14:08:20.833Z,4.70
2022-12-19T14:11:41.660Z,4.60
2022-12-19T14:14:10.721Z,4.50
2022-12-19T14:16:45.578Z,4.50
2022-12-19T14:19:22.395Z,4.50
2022-12-19T14:22:06.091Z,4.50
2022-12-19T14:24:36.511Z,4.30
2022-12-19T14:28:26.134Z,4.30
2022-12-19T14:30:27.919Z,4.30
2022-12-19T14:33:45.212Z,4.20
2022-12-19T14:36:10.282Z,4.00
2022-12-19T14:39:26.639Z,4.00
2022-12-19T14:42:00.704Z,3.90
2022-12-19T14:52:25.529Z,4.00
2022-12-19T14:52:34.220Z,4.00
2022-12-19T14:54:12.113Z,3.90
2022-12-19T14:54:40.651Z,3.90
2022-12-19T14:56:38.999Z,3.90
2022-12-19T14:59:24.988Z,3.90
2022-12-19T15:02:07.127Z,3.80
2022-12-19T15:04:49.650Z,3.70
2022-12-19T15:07:24.891Z,3.60
2022-12-19T15:11:02.797Z,3.50
2022-12-19T15:14:48.131Z,3.40
2022-12-19T15:16:30.987Z,3.20
2022-12-19T15:19:02.494Z,3.00
2022-12-19T15:21:30.896Z,2.90
2022-12-19T15:23:57.969Z,2.80
2022-12-19T15:26:34.996Z,2.70
2022-12-19T15:29:07.015Z,2.70
2022-12-19T15:31:41.826Z,2.60
2022-12-19T15:34:34.921Z,2.50
2022-12-19T15:37:05.182Z,2.50
2022-12-19T15:39:32.191Z,2.40
2022-12-19T15:42:00.346Z,2.40
2022-12-19T15:44:35.199Z,2.40
2022-12-19T15:47:04.164Z,2.40
2022-12-19T15:49:32.888Z,2.30
2022-12-19T15:51:59.973Z,2.20
2022-12-19T15:57:28.835Z,2.30
2022-12-19T16:00:01.286Z,2.30
2022-12-19T16:02:56.520Z,2.30
2022-12-19T16:05:18.131Z,2.20
2022-12-19T16:07:46.090Z,2.20
2022-12-19T16:10:13.730Z,2.20
2022-12-19T16:12:50.935Z,2.20
2022-12-19T16:15:22.102Z,2.20
2022-12-19T16:17:53.752Z,2.10
2022-12-19T16:20:24.749Z,2.10
2022-12-19T16:22:55.401Z,2.00
2022-12-19T16:25:30.214Z,2.00
2022-12-19T16:27:59.435Z,2.00
2022-12-19T16:30:32.613Z,2.00
2022-12-19T16:33:00.122Z,1.90
2022-12-19T16:36:03.180Z,1.90
2022-12-19T16:38:20.109Z,1.80
2022-12-19T16:40:47.303Z,1.80
2022-12-19T16:43:19.769Z,1.80
2022-12-19T16:45:46.981Z,1.60
2022-12-19T16:48:23.319Z,1.50
2022-12-19T16:50:53.125Z,1.50
2022-12-19T16:53:23.165Z,1.40
2022-12-19T16:55:56.219Z,1.40
2022-12-19T16:58:28.832Z,1.40
2022-12-19T17:00:56.771Z,1.40
2022-12-19T17:03:43.563Z,1.40
2022-12-19T17:06:17.921Z,1.30
2022-12-19T17:08:45.759Z,1.30
2022-12-19T17:11:23.040Z,1.30
2022-12-19T17:14:02.656Z,1.30
2022-12-19T17:16:32.835Z,1.30
2022-12-19T17:19:01.570Z,1.20
2022-12-19T17:21:28.855Z,1.30
2022-12-19T17:23:55.811Z,1.30
2022-12-19T17:26:25.058Z,1.40
2022-12-19T17:28:52.063Z,1.30
2022-12-19T17:31:26.029Z,1.40
2022-12-19T17:33:56.450Z,1.40
2022-12-19T17:36:32.806Z,1.40
2022-12-19T17:39:20.920Z,1.50
2022-12-19T17:41:49.062Z,1.60
2022-12-19T17:44:16.271Z,1.70
2022-12-19T17:46:43.873Z,1.70
2022-12-19T17:49:41.595Z,1.70
2022-12-19T17:52:14.705Z,1.70
2022-12-19T17:54:42.020Z,1.70
2022-12-19T17:57:15.481Z,1.70
2022-12-19T17:59:42.950Z,1.60
2022-12-19T18:02:25.350Z,1.60
2022-12-19T18:04:59.103Z,1.60
2022-12-19T18:07:28.514Z,1.60
2022-12-19T18:09:57.608Z,1.60
2022-12-19T18:12:24.632Z,1.70
2022-12-19T18:14:53.854Z,1.70
2022-12-19T18:17:25.387Z,1.80
2022-12-19T18:19:55.538Z,1.80
2022-12-19T18:22:22.511Z,1.80
2022-12-19T18:24:49.486Z,1.80
2022-12-19T18:27:16.516Z,1.80
2022-12-19T18:29:45.674Z,1.80
2022-12-19T18:32:29.767Z,1.80
2022-12-19T18:34:58.889Z,1.80
2022-12-19T18:37:25.847Z,1.80
2022-12-19T18:39:57.339Z,1.90
2022-12-19T18:42:27.444Z,1.80
2022-12-19T18:44:54.545Z,1.80
2022-12-19T18:47:23.250Z,1.80
2022-12-19T18:49:59.891Z,1.80
2022-12-19T18:52:29.137Z,1.80
2022-12-19T18:54:58.405Z,1.70
2022-12-19T18:57:25.386Z,1.70
2022-12-19T18:59:52.367Z,1.70
2022-12-19T19:02:29.312Z,1.80
2022-12-19T19:04:59.362Z,1.80
2022-12-19T19:07:26.513Z,1.80
2022-12-19T19:09:55.859Z,1.80
2022-12-19T19:12:42.625Z,1.80
2022-12-19T19:15:12.081Z,1.90
2022-12-19T19:17:42.131Z,1.90
2022-12-19T19:20:09.526Z,1.90
2022-12-19T19:22:36.529Z,1.90
2022-12-19T19:25:03.748Z,1.90
2022-12-19T19:27:30.808Z,1.90
2022-12-19T19:29:58.765Z,1.80
2022-12-19T19:32:28.347Z,1.70
2022-12-19T19:34:55.779Z,1.70
2022-12-19T19:37:22.744Z,1.60
2022-12-19T19:39:49.551Z,1.50
2022-12-19T19:42:18.749Z,1.60
2022-12-19T19:44:46.256Z,1.60
2022-12-19T19:47:17.791Z,1.60
2022-12-19T19:49:44.833Z,1.60
2022-12-19T19:52:11.935Z,1.70
2022-12-19T19:54:41.309Z,1.60
2022-12-19T19:57:10.382Z,1.60
2022-12-19T19:59:40.059Z,1.70
2022-12-19T20:02:08.734Z,1.70
2022-12-19T20:04:40.312Z,1.60
2022-12-19T20:07:07.596Z,1.60
2022-12-19T20:09:34.706Z,1.70
2022-12-19T20:12:01.755Z,1.70
2022-12-19T20:14:31.092Z,1.70
2022-12-19T20:16:58.162Z,1.70
2022-12-19T20:19:25.216Z,1.50
2022-12-19T20:21:58.023Z,1.50
2022-12-19T20:24:25.252Z,1.50
2022-12-19T20:26:54.863Z,1.40
2022-12-19T20:29:21.985Z,1.40
2022-12-19T20:31:52.054Z,1.40
2022-12-19T20:34:20.143Z,1.40
2022-12-19T20:36:49.945Z,1.40
2022-12-19T20:39:21.997Z,1.50
2022-12-19T20:41:52.584Z,1.60
2022-12-19T20:44:24.478Z,1.60
2022-12-19T20:46:54.384Z,1.60
2022-12-19T20:49:23.849Z,1.50
2022-12-19T20:51:53.595Z,1.50
2022-12-19T20:54:23.557Z,1.60
2022-12-19T20:56:52.906Z,1.60
2022-12-19T20:59:19.979Z,1.70
2022-12-19T21:01:47.235Z,1.80
2022-12-19T21:04:14.914Z,1.80
2022-12-19T21:06:44.293Z,1.90
2022-12-19T21:09:12.435Z,1.80
2022-12-19T21:11:41.561Z,1.90
2022-12-19T21:14:08.691Z,1.90
2022-12-19T21:16:36.924Z,1.90
2022-12-19T21:19:08.948Z,2.00
2022-12-19T21:21:35.951Z,2.00
2022-12-19T21:24:02.924Z,1.90
2022-12-19T21:26:32.636Z,1.80
2022-12-19T21:28:59.730Z,1.80
2022-12-19T21:31:29.687Z,1.80
2022-12-19T21:33:58.771Z,1.80
2022-12-19T21:36:30.255Z,1.80
2022-12-19T21:39:01.989Z,1.80
2022-12-19T21:41:31.981Z,1.80
2022-12-19T21:44:00.767Z,1.80
2022-12-19T21:46:37.426Z,1.80
2022-12-19T21:49:04.720Z,1.90
2022-12-19T21:51:34.520Z,1.90
2022-12-19T21:54:04.740Z,2.00
2022-12-19T21:56:39.768Z,2.00
2022-12-19T21:59:18.484Z,1.90
2022-12-19T22:01:50.118Z,2.00
2022-12-19T22:04:23.816Z,2.00
2022-12-19T22:06:51.612Z,2.00
2022-12-19T22:09:23.540Z,1.90
2022-12-19T22:11:50.883Z,1.90
2022-12-19T22:14:18.036Z,1.90
2022-12-19T22:16:47.427Z,1.90
2022-12-19T22:19:18.838Z,2.00
2022-12-19T22:21:47.315Z,2.00
2022-12-19T22:24:15.473Z,2.00
2022-12-19T22:26:42.762Z,1.90
2022-12-19T22:29:13.053Z,2.00
2022-12-19T22:31:40.762Z,2.00
2022-12-19T22:34:19.636Z,2.00
2022-12-19T22:36:48.204Z,1.90
2022-12-19T22:39:22.882Z,2.00
2022-12-19T22:41:52.766Z,2.00
2022-12-19T22:44:22.644Z,2.00
2022-12-19T22:46:55.315Z,1.90
2022-12-19T22:49:24.376Z,1.90
2022-12-19T22:51:55.973Z,2.00
2022-12-19T22:54:23.010Z,1.80
2022-12-19T22:56:53.274Z,1.90
2022-12-19T22:59:22.557Z,1.90
2022-12-19T23:01:52.943Z,2.00
2022-12-19T23:04:20.201Z,2.00
2022-12-19T23:06:47.435Z,2.00
2022-12-19T23:09:16.388Z,1.90
2022-12-19T23:11:48.054Z,1.90
2022-12-19T23:14:17.694Z,1.90
2022-12-19T23:16:45.447Z,1.90
2022-12-19T23:19:15.128Z,2.00
2022-12-19T23:21:42.277Z,2.00
2022-12-19T23:24:15.164Z,1.90
2022-12-19T23:26:45.099Z,1.90
2022-12-19T23:29:14.833Z,1.90
2022-12-19T23:31:45.391Z,1.80
2022-12-19T23:34:15.871Z,1.80
2022-12-19T23:37:10.149Z,1.80
2022-12-19T23:39:35.419Z,1.70
2022-12-19T23:42:04.890Z,1.70
2022-12-19T23:44:34.192Z,1.70
2022-12-19T23:47:03.911Z,1.60
2022-12-19T23:49:34.737Z,1.60
2022-12-19T23:52:04.285Z,1.60
2022-12-19T23:54:31.317Z,1.60
2022-12-19T23:56:58.303Z,1.60
2022-12-19T23:59:28.445Z,1.60
